Time;durP1;ratioP1;P1;durP2;ratioP2;P2;SDS_P1;SDS_P2;PMS_P1;PMS_P2;Temp;Humidity;BMP_temperature;BMP_pressure;BME280_temperature;BME280_humidity;BME280_pressure;Samples;Min_cycle;Max_cycle;Signal;HPM_P1;HPM_P2
2022/06/25 00:01:02;;;;;;;;;;;14.80;99.90;;;;;;5088396;28;19916;-61
2022/06/25 00:03:28;;;;;;;;;;;14.90;99.90;;;;;;5086890;28;20266;-62
2022/06/25 00:05:53;;;;;;;;;;;14.70;99.90;;;;;;5088427;28;19919;-62
2022/06/25 00:08:19;;;;;;;;;;;14.60;99.90;;;;;;5088129;28;19958;-61
2022/06/25 00:10:44;;;;;;;;;;;14.60;99.90;;;;;;5083754;28;19912;-62
2022/06/25 00:13:10;;;;;;;;;;;14.50;99.90;;;;;;5086429;28;19919;-62
2022/06/25 00:15:36;;;;;;;;;;;14.50;99.90;;;;;;5090403;28;20020;-62
2022/06/25 00:18:01;;;;;;;;;;;14.50;99.90;;;;;;5087986;28;19920;-62
2022/06/25 00:20:27;;;;;;;;;;;14.50;99.90;;;;;;5090956;28;20435;-62
2022/06/25 00:22:52;;;;;;;;;;;14.50;99.90;;;;;;5091830;28;19969;-62
2022/06/25 00:25:18;;;;;;;;;;;14.50;99.90;;;;;;5090238;28;19920;-61
2022/06/25 00:27:44;;;;;;;;;;;14.50;99.90;;;;;;5086378;28;20369;-62
2022/06/25 00:30:09;;;;;;;;;;;14.50;99.90;;;;;;5067946;28;19913;-62
2022/06/25 00:32:35;;;;;;;;;;;14.50;99.90;;;;;;5091013;28;19916;-62
2022/06/25 00:35:01;;;;;;;;;;;14.50;99.90;;;;;;5091400;28;19912;-62
2022/06/25 00:37:27;;;;;;;;;;;14.40;99.90;;;;;;5092065;28;19912;-62
2022/06/25 00:39:53;;;;;;;;;;;14.40;99.90;;;;;;5087679;28;20013;-62
2022/06/25 00:42:18;;;;;;;;;;;14.30;99.90;;;;;;5087156;28;19952;-62
2022/06/25 00:44:44;;;;;;;;;;;14.30;99.90;;;;;;5083808;28;19912;-62
2022/06/25 00:47:11;;;;;;;;;;;14.20;99.90;;;;;;5092166;28;19912;-62
2022/06/25 00:49:36;;;;;;;;;;;14.20;99.90;;;;;;5089036;28;19978;-61
2022/06/25 00:52:04;;;;;;;;;;;14.30;99.90;;;;;;5073009;28;20367;-62
2022/06/25 00:54:32;;;;;;;;;;;14.20;99.90;;;;;;5092644;28;19923;-65
2022/06/25 00:56:58;;;;;;;;;;;14.20;99.90;;;;;;5092305;28;19912;-61
2022/06/25 00:59:27;;;;;;;;;;;14.10;99.90;;;;;;5087252;28;19919;-61
2022/06/25 01:01:52;;;;;;;;;;;14.10;99.90;;;;;;5090361;28;19935;-62
2022/06/25 01:04:18;;;;;;;;;;;14.00;99.90;;;;;;5090619;28;19920;-61
2022/06/25 01:06:43;;;;;;;;;;;13.90;99.90;;;;;;5088231;28;19912;-62
2022/06/25 01:09:09;;;;;;;;;;;13.80;99.90;;;;;;5086951;28;19958;-62
2022/06/25 01:11:35;;;;;;;;;;;13.80;99.90;;;;;;5088921;28;19920;-62
2022/06/25 01:14:06;;;;;;;;;;;13.70;99.90;;;;;;5068992;28;20323;-61
2022/06/25 01:16:31;;;;;;;;;;;13.70;99.90;;;;;;5084593;28;19916;-61
2022/06/25 01:18:57;;;;;;;;;;;13.60;99.90;;;;;;5069834;28;20285;-61
2022/06/25 01:21:22;;;;;;;;;;;13.60;99.90;;;;;;5087169;28;19969;-61
2022/06/25 01:23:48;;;;;;;;;;;13.50;99.90;;;;;;5089881;28;19942;-62
2022/06/25 01:26:14;;;;;;;;;;;13.50;99.90;;;;;;5085142;28;19951;-61
2022/06/25 01:28:39;;;;;;;;;;;13.40;99.90;;;;;;5087913;28;19913;-61
2022/06/25 01:31:05;;;;;;;;;;;13.30;99.90;;;;;;5089221;28;20463;-62
2022/06/25 01:33:31;;;;;;;;;;;13.30;99.90;;;;;;5086041;28;19913;-61
2022/06/25 01:35:56;;;;;;;;;;;13.30;99.90;;;;;;5087090;28;19965;-61
2022/06/25 01:38:22;;;;;;;;;;;13.30;99.90;;;;;;5085763;28;19916;-61
2022/06/25 01:40:47;;;;;;;;;;;13.30;99.90;;;;;;5086359;28;19916;-66
2022/06/25 01:43:13;;;;;;;;;;;13.30;99.90;;;;;;5081117;28;19924;-60
2022/06/25 01:45:38;;;;;;;;;;;13.30;99.90;;;;;;5084950;28;19923;-61
2022/06/25 01:48:05;;;;;;;;;;;13.30;99.90;;;;;;5083131;28;20270;-61
2022/06/25 01:50:31;;;;;;;;;;;13.30;99.90;;;;;;5082157;28;19916;-61
2022/06/25 01:52:57;;;;;;;;;;;13.30;99.90;;;;;;5087007;28;20538;-62
2022/06/25 01:55:22;;;;;;;;;;;13.30;99.90;;;;;;5088610;28;19912;-60
2022/06/25 01:57:48;;;;;;;;;;;13.30;99.90;;;;;;5085708;28;20011;-63
2022/06/25 02:00:16;;;;;;;;;;;13.30;99.90;;;;;;5071234;28;20376;-61
2022/06/25 02:02:42;;;;;;;;;;;13.20;99.90;;;;;;5090577;28;19916;-61
2022/06/25 02:05:08;;;;;;;;;;;13.20;99.90;;;;;;5089313;28;20059;-62
2022/06/25 02:07:34;;;;;;;;;;;13.10;99.90;;;;;;5090095;28;19912;-62
2022/06/25 02:09:59;;;;;;;;;;;13.10;99.90;;;;;;5072605;28;20274;-62
2022/06/25 02:12:25;;;;;;;;;;;13.10;99.90;;;;;;5091137;28;20443;-61
2022/06/25 02:14:50;;;;;;;;;;;13.00;99.90;;;;;;5087723;28;20354;-62
2022/06/25 02:17:16;;;;;;;;;;;13.10;99.90;;;;;;5088797;28;19920;-61
2022/06/25 02:19:42;;;;;;;;;;;13.00;99.90;;;;;;5089805;28;20316;-61
2022/06/25 02:22:08;;;;;;;;;;;13.10;99.90;;;;;;5090766;28;19916;-62
2022/06/25 02:24:33;;;;;;;;;;;13.10;99.90;;;;;;5089619;28;19920;-61
2022/06/25 02:26:59;;;;;;;;;;;13.00;99.90;;;;;;5088991;28;19951;-61
2022/06/25 02:29:24;;;;;;;;;;;13.00;99.90;;;;;;5092562;28;19912;-61
2022/06/25 02:31:50;;;;;;;;;;;13.00;99.90;;;;;;5089786;28;19912;-62
2022/06/25 02:34:16;;;;;;;;;;;13.00;99.90;;;;;;5087692;28;19911;-62
2022/06/25 02:36:41;;;;;;;;;;;13.10;99.90;;;;;;5090994;28;19912;-61
2022/06/25 02:39:07;;;;;;;;;;;13.00;99.90;;;;;;5067037;28;19917;-61
2022/06/25 02:41:32;;;;;;;;;;;13.10;99.90;;;;;;5071659;28;19963;-61
2022/06/25 02:43:58;;;;;;;;;;;13.00;99.90;;;;;;5088804;28;20015;-61
2022/06/25 02:46:24;;;;;;;;;;;13.00;99.90;;;;;;5090551;28;19943;-61
2022/06/25 02:48:49;;;;;;;;;;;13.00;99.90;;;;;;5088766;28;19919;-62
2022/06/25 02:51:15;;;;;;;;;;;12.90;99.90;;;;;;5087088;28;19912;-62
2022/06/25 02:53:40;;;;;;;;;;;12.90;99.90;;;;;;5090240;28;19919;-62
2022/06/25 02:58:58;;;;;;;;;;;12.90;99.90;;;;;;5089574;28;20335;-61
2022/06/25 03:01:27;;;;;;;;;;;13.00;99.90;;;;;;5089392;28;20041;-62
2022/06/25 03:03:53;;;;;;;;;;;12.90;99.90;;;;;;5083564;28;19921;-63
2022/06/25 03:06:19;;;;;;;;;;;12.90;99.90;;;;;;5088640;28;20338;-62
2022/06/25 03:08:45;;;;;;;;;;;12.90;99.90;;;;;;5088569;28;19912;-63
2022/06/25 03:11:11;;;;;;;;;;;12.90;99.90;;;;;;5085789;28;20044;-62
2022/06/25 03:13:37;;;;;;;;;;;12.90;99.90;;;;;;5087076;28;19950;-62
2022/06/25 03:16:03;;;;;;;;;;;12.90;99.90;;;;;;5090755;28;20021;-61
2022/06/25 03:18:29;;;;;;;;;;;12.80;99.90;;;;;;5071582;28;19931;-61
2022/06/25 03:20:54;;;;;;;;;;;12.80;99.90;;;;;;5092764;28;19916;-62
2022/06/25 03:23:20;;;;;;;;;;;12.80;99.90;;;;;;5089181;28;19923;-62
2022/06/25 03:25:46;;;;;;;;;;;12.80;99.90;;;;;;5088774;28;19912;-62
2022/06/25 03:28:12;;;;;;;;;;;12.80;99.90;;;;;;5089084;28;19995;-62
2022/06/25 03:30:37;;;;;;;;;;;12.80;99.90;;;;;;5070603;28;19991;-61
2022/06/25 03:33:03;;;;;;;;;;;12.80;99.90;;;;;;5088987;28;19919;-61
2022/06/25 03:35:29;;;;;;;;;;;12.70;99.90;;;;;;5092154;28;20449;-62
2022/06/25 03:37:55;;;;;;;;;;;12.70;99.90;;;;;;5089558;28;19919;-62
2022/06/25 03:40:20;;;;;;;;;;;12.70;99.90;;;;;;5070547;28;19920;-61
2022/06/25 03:42:46;;;;;;;;;;;12.80;99.90;;;;;;5086247;28;19916;-61
2022/06/25 03:45:12;;;;;;;;;;;12.70;99.90;;;;;;5087125;28;20313;-61
2022/06/25 03:47:37;;;;;;;;;;;12.80;99.90;;;;;;5089114;28;19912;-62
2022/06/25 03:50:03;;;;;;;;;;;12.80;99.90;;;;;;5087225;28;20442;-62
2022/06/25 03:52:29;;;;;;;;;;;12.80;99.90;;;;;;5071488;28;19983;-61
2022/06/25 03:54:54;;;;;;;;;;;12.80;99.90;;;;;;5080801;28;19916;-61
2022/06/25 03:57:20;;;;;;;;;;;12.80;99.90;;;;;;5079706;28;19962;-62
2022/06/25 03:59:45;;;;;;;;;;;12.90;99.90;;;;;;5086260;28;19923;-62
2022/06/25 04:02:11;;;;;;;;;;;13.00;99.90;;;;;;5085082;28;19923;-62
2022/06/25 04:04:37;;;;;;;;;;;13.00;99.90;;;;;;5088740;28;20266;-62
2022/06/25 04:07:02;;;;;;;;;;;13.00;99.90;;;;;;5087355;28;20356;-62
2022/06/25 04:09:28;;;;;;;;;;;12.90;99.90;;;;;;5090713;28;20338;-62
2022/06/25 04:11:53;;;;;;;;;;;12.90;99.90;;;;;;5089870;28;19954;-61
2022/06/25 04:14:19;;;;;;;;;;;13.00;99.90;;;;;;5088513;28;19979;-61
2022/06/25 04:16:44;;;;;;;;;;;12.90;99.90;;;;;;5088407;28;19935;-62
2022/06/25 04:19:10;;;;;;;;;;;12.90;99.90;;;;;;5084414;28;19963;-61
2022/06/25 04:21:36;;;;;;;;;;;13.00;99.90;;;;;;5088445;28;19916;-61
2022/06/25 04:24:01;;;;;;;;;;;13.00;99.90;;;;;;5083651;28;20359;-61
2022/06/25 04:26:27;;;;;;;;;;;13.00;99.90;;;;;;5087736;28;19950;-61
2022/06/25 04:29:04;;;;;;;;;;;13.00;99.90;;;;;;5088523;28;20281;-62
2022/06/25 04:31:31;;;;;;;;;;;13.00;99.90;;;;;;5089414;28;19918;-62
2022/06/25 04:33:57;;;;;;;;;;;13.00;99.90;;;;;;5087566;28;19919;-62
2022/06/25 04:36:22;;;;;;;;;;;12.90;99.90;;;;;;5083553;28;19916;-62
2022/06/25 04:38:48;;;;;;;;;;;12.90;99.90;;;;;;5087000;28;19912;-62
2022/06/25 04:41:14;;;;;;;;;;;12.90;99.90;;;;;;5089656;28;19923;-61
2022/06/25 04:43:40;;;;;;;;;;;12.90;99.90;;;;;;5072680;28;19917;-61
2022/06/25 04:46:06;;;;;;;;;;;12.90;99.90;;;;;;5089315;28;20266;-61
2022/06/25 04:48:31;;;;;;;;;;;12.90;99.90;;;;;;5088033;28;19930;-61
2022/06/25 04:50:57;;;;;;;;;;;12.90;99.90;;;;;;5088275;28;19941;-63
2022/06/25 04:53:23;;;;;;;;;;;12.80;99.90;;;;;;5088863;28;19916;-61
2022/06/25 04:55:48;;;;;;;;;;;12.90;99.90;;;;;;5091064;28;19973;-61
2022/06/25 04:58:14;;;;;;;;;;;12.80;99.90;;;;;;5085763;28;20003;-62
2022/06/25 05:00:40;;;;;;;;;;;12.90;99.90;;;;;;5088274;28;19916;-62
2022/06/25 05:03:05;;;;;;;;;;;12.90;99.90;;;;;;5090748;28;20300;-61
2022/06/25 05:05:31;;;;;;;;;;;12.90;99.90;;;;;;5068841;28;19920;-62
2022/06/25 05:07:57;;;;;;;;;;;13.00;99.90;;;;;;5088500;28;19972;-62
2022/06/25 05:10:22;;;;;;;;;;;13.00;99.90;;;;;;5089928;28;19955;-63
2022/06/25 05:15:33;;;;;;;;;;;13.10;99.90;;;;;;5085644;28;19965;-61
2022/06/25 05:17:59;;;;;;;;;;;13.10;99.90;;;;;;5083877;28;20267;-61
2022/06/25 05:20:24;;;;;;;;;;;13.20;99.90;;;;;;5082004;28;19917;-61
2022/06/25 05:22:50;;;;;;;;;;;13.40;99.90;;;;;;5092131;28;19916;-61
2022/06/25 05:25:15;;;;;;;;;;;13.50;99.90;;;;;;5084647;28;20367;-61
2022/06/25 05:27:41;;;;;;;;;;;13.60;99.90;;;;;;5094726;28;20325;-62
2022/06/25 05:30:07;;;;;;;;;;;13.60;99.90;;;;;;5091805;28;20329;-62
2022/06/25 05:32:33;;;;;;;;;;;13.80;99.90;;;;;;5084498;28;19912;-61
2022/06/25 05:34:59;;;;;;;;;;;13.80;99.90;;;;;;5067709;28;19918;-61
2022/06/25 05:37:25;;;;;;;;;;;13.90;99.90;;;;;;5089313;28;19914;-61
2022/06/25 05:39:51;;;;;;;;;;;14.00;99.90;;;;;;5092696;28;19938;-61
2022/06/25 05:42:16;;;;;;;;;;;14.00;99.90;;;;;;5075453;28;19982;-62
2022/06/25 05:44:43;;;;;;;;;;;14.10;99.90;;;;;;5090800;28;19920;-61
2022/06/25 05:47:09;;;;;;;;;;;14.30;99.90;;;;;;5095009;28;19918;-61
2022/06/25 05:49:34;;;;;;;;;;;14.40;99.90;;;;;;5091763;28;20003;-61
2022/06/25 05:52:00;;;;;;;;;;;14.40;99.90;;;;;;5092750;28;20468;-61
2022/06/25 05:54:26;;;;;;;;;;;14.20;99.90;;;;;;5084155;28;20011;-62
2022/06/25 05:56:52;;;;;;;;;;;14.10;99.90;;;;;;5075698;28;19965;-63
2022/06/25 05:59:18;;;;;;;;;;;14.10;99.90;;;;;;5089479;28;19998;-61
2022/06/25 06:01:43;;;;;;;;;;;14.10;99.90;;;;;;5089179;28;20349;-62
2022/06/25 06:04:09;;;;;;;;;;;14.10;99.90;;;;;;5094796;28;19965;-60
2022/06/25 06:06:34;;;;;;;;;;;14.20;99.90;;;;;;5093586;28;19916;-61
2022/06/25 06:09:00;;;;;;;;;;;14.20;99.90;;;;;;5093786;28;19949;-61
2022/06/25 06:11:26;;;;;;;;;;;14.10;99.90;;;;;;5090692;28;19916;-62
2022/06/25 06:13:51;;;;;;;;;;;14.20;99.90;;;;;;5092477;28;20379;-62
2022/06/25 06:16:17;;;;;;;;;;;14.20;99.90;;;;;;5091575;28;19928;-62
2022/06/25 06:18:42;;;;;;;;;;;14.20;99.90;;;;;;5088770;28;19966;-62
2022/06/25 06:21:08;;;;;;;;;;;14.20;99.90;;;;;;5097082;28;20404;-62
2022/06/25 06:23:33;;;;;;;;;;;14.40;99.90;;;;;;5097035;28;20373;-62
2022/06/25 06:25:59;;;;;;;;;;;14.50;99.90;;;;;;5088562;28;20374;-62
2022/06/25 06:28:25;;;;;;;;;;;14.50;99.90;;;;;;5088874;28;20019;-61
2022/06/25 06:30:50;;;;;;;;;;;14.80;99.90;;;;;;5094985;28;19919;-62
2022/06/25 06:33:17;;;;;;;;;;;15.10;99.90;;;;;;5087410;28;19955;-61
2022/06/25 06:35:42;;;;;;;;;;;15.40;99.90;;;;;;5086283;28;19912;-62
2022/06/25 06:38:08;;;;;;;;;;;15.50;99.90;;;;;;5093890;28;20274;-61
2022/06/25 06:40:34;;;;;;;;;;;15.60;99.90;;;;;;5091568;28;19916;-62
2022/06/25 06:43:00;;;;;;;;;;;15.60;99.90;;;;;;5094251;28;19916;-61
2022/06/25 06:45:26;;;;;;;;;;;15.50;99.90;;;;;;5085111;28;19912;-62
2022/06/25 06:47:52;;;;;;;;;;;15.50;99.90;;;;;;5079155;28;19927;-62
2022/06/25 06:50:17;;;;;;;;;;;15.50;99.90;;;;;;5091780;28;19912;-62
2022/06/25 06:52:43;;;;;;;;;;;15.60;99.90;;;;;;5092132;28;20366;-61
2022/06/25 06:55:09;;;;;;;;;;;15.70;99.90;;;;;;5084773;28;19919;-61
2022/06/25 06:57:34;;;;;;;;;;;15.60;99.90;;;;;;5084180;28;19912;-61
2022/06/25 07:00:07;;;;;;;;;;;15.40;99.90;;;;;;5086753;28;19920;-62
2022/06/25 07:02:33;;;;;;;;;;;15.50;99.90;;;;;;5093463;28;19916;-61
2022/06/25 07:04:58;;;;;;;;;;;15.50;99.90;;;;;;5088911;28;20409;-61
2022/06/25 07:07:24;;;;;;;;;;;15.50;99.90;;;;;;5089437;28;19958;-62
2022/06/25 07:09:49;;;;;;;;;;;15.50;99.90;;;;;;5089592;28;19969;-62
2022/06/25 07:12:15;;;;;;;;;;;15.50;99.90;;;;;;5090152;28;19931;-61
2022/06/25 07:14:41;;;;;;;;;;;15.50;99.90;;;;;;5087736;28;19965;-62
2022/06/25 07:17:07;;;;;;;;;;;15.50;99.90;;;;;;5089538;28;20309;-61
2022/06/25 07:19:32;;;;;;;;;;;15.60;99.90;;;;;;5087820;28;19971;-62
2022/06/25 07:21:58;;;;;;;;;;;15.80;99.90;;;;;;5089458;28;19916;-61
2022/06/25 07:24:24;;;;;;;;;;;15.80;99.90;;;;;;5086835;28;19920;-62
2022/06/25 07:26:50;;;;;;;;;;;16.00;99.90;;;;;;5087424;28;20430;-62
2022/06/25 07:29:15;;;;;;;;;;;16.40;99.90;;;;;;5089161;28;19989;-63
2022/06/25 07:31:41;;;;;;;;;;;16.60;99.90;;;;;;5086616;28;19954;-62
2022/06/25 07:34:06;;;;;;;;;;;16.70;99.90;;;;;;5087992;28;20002;-62
2022/06/25 07:36:32;;;;;;;;;;;16.70;99.90;;;;;;5068511;28;20262;-62
2022/06/25 07:38:58;;;;;;;;;;;16.50;99.90;;;;;;5083875;28;19912;-61
2022/06/25 07:41:23;;;;;;;;;;;16.20;99.90;;;;;;5085025;28;19970;-61
2022/06/25 07:43:49;;;;;;;;;;;16.20;99.90;;;;;;5087476;28;19923;-61
2022/06/25 07:46:14;;;;;;;;;;;16.20;99.90;;;;;;5067399;28;19912;-62
2022/06/25 07:48:40;;;;;;;;;;;16.30;99.90;;;;;;5082623;28;19918;-61
2022/06/25 07:53:50;;;;;;;;;;;16.50;99.90;;;;;;5086174;28;20371;-63
2022/06/25 07:56:16;;;;;;;;;;;16.50;99.90;;;;;;5081874;28;19912;-62
2022/06/25 07:58:42;;;;;;;;;;;16.60;99.90;;;;;;5083071;28;20355;-63
2022/06/25 08:01:07;;;;;;;;;;;16.70;99.90;;;;;;5086675;28;19923;-62
2022/06/25 08:03:33;;;;;;;;;;;16.60;99.90;;;;;;5087736;28;20348;-63
2022/06/25 08:05:59;;;;;;;;;;;16.70;99.90;;;;;;5070757;28;20034;-61
2022/06/25 08:08:25;;;;;;;;;;;16.80;99.90;;;;;;5068833;28;20381;-62
2022/06/25 08:10:51;;;;;;;;;;;17.00;99.90;;;;;;5089770;28;19912;-62
2022/06/25 08:13:17;;;;;;;;;;;17.20;99.90;;;;;;5085748;28;19959;-62
2022/06/25 08:15:43;;;;;;;;;;;17.20;99.90;;;;;;5089687;28;19955;-62
2022/06/25 08:18:08;;;;;;;;;;;17.10;99.90;;;;;;5086706;28;20356;-63
2022/06/25 08:20:34;;;;;;;;;;;17.30;99.90;;;;;;5089458;28;19916;-61
2022/06/25 08:23:00;;;;;;;;;;;17.40;99.90;;;;;;5086188;28;19916;-62
2022/06/25 08:25:25;;;;;;;;;;;17.30;99.90;;;;;;5083037;28;19950;-62
2022/06/25 08:27:52;;;;;;;;;;;17.10;99.90;;;;;;5085356;28;20001;-62
2022/06/25 08:30:18;;;;;;;;;;;17.20;99.90;;;;;;5085973;28;19917;-62
2022/06/25 08:32:44;;;;;;;;;;;17.40;99.90;;;;;;5087211;28;20373;-62
2022/06/25 08:35:10;;;;;;;;;;;17.50;99.90;;;;;;5084506;28;19912;-62
2022/06/25 08:37:36;;;;;;;;;;;17.50;99.90;;;;;;5070127;28;19919;-61
2022/06/25 08:40:02;;;;;;;;;;;17.60;99.90;;;;;;5080696;28;19916;-64
2022/06/25 08:42:28;;;;;;;;;;;17.50;99.90;;;;;;5081168;28;20289;-63
2022/06/25 08:44:53;;;;;;;;;;;17.60;99.90;;;;;;5083274;28;19931;-63
2022/06/25 08:47:19;;;;;;;;;;;17.60;99.90;;;;;;5081331;28;19912;-64
2022/06/25 08:49:45;;;;;;;;;;;17.40;99.90;;;;;;5074448;28;20315;-62
2022/06/25 08:52:11;;;;;;;;;;;17.50;99.90;;;;;;5083198;28;19935;-63
2022/06/25 08:54:37;;;;;;;;;;;17.60;99.90;;;;;;5085754;28;19912;-63
2022/06/25 08:57:03;;;;;;;;;;;17.40;99.90;;;;;;5083823;28;19984;-62
2022/06/25 08:59:30;;;;;;;;;;;17.20;99.90;;;;;;5081282;28;19912;-63
2022/06/25 09:01:55;;;;;;;;;;;17.30;99.90;;;;;;5077804;28;19916;-63
2022/06/25 09:04:21;;;;;;;;;;;17.30;99.90;;;;;;5079508;28;20385;-62
2022/06/25 09:06:49;;;;;;;;;;;17.50;99.90;;;;;;5079373;28;19916;-62
2022/06/25 09:09:16;;;;;;;;;;;17.40;99.90;;;;;;5082780;28;19912;-62
2022/06/25 09:11:52;;;;;;;;;;;17.40;99.90;;;;;;5087007;28;20393;-62
2022/06/25 09:14:19;;;;;;;;;;;17.40;99.90;;;;;;5077760;28;19923;-62
2022/06/25 09:16:48;;;;;;;;;;;17.20;99.90;;;;;;5082080;28;19912;-63
2022/06/25 09:19:26;;;;;;;;;;;16.80;99.90;;;;;;5085187;28;20033;-62
2022/06/25 09:21:51;;;;;;;;;;;16.50;99.90;;;;;;5084508;28;20026;-62
2022/06/25 09:24:17;;;;;;;;;;;16.50;99.90;;;;;;5091667;28;20291;-63
2022/06/25 09:26:52;;;;;;;;;;;16.70;99.90;;;;;;5089800;28;20299;-62
2022/06/25 09:29:18;;;;;;;;;;;16.80;99.90;;;;;;5061219;28;20275;-63
2022/06/25 09:31:43;;;;;;;;;;;16.90;99.90;;;;;;5085308;28;19923;-63
2022/06/25 09:34:09;;;;;;;;;;;17.10;99.90;;;;;;5088123;28;20280;-61
2022/06/25 09:36:36;;;;;;;;;;;17.30;99.90;;;;;;5085762;28;19912;-63
2022/06/25 09:39:02;;;;;;;;;;;17.60;99.90;;;;;;5083194;28;20278;-63
2022/06/25 09:41:46;;;;;;;;;;;17.70;99.90;;;;;;5088445;28;19923;-63
2022/06/25 09:44:16;;;;;;;;;;;17.80;99.90;;;;;;5085074;28;19916;-63
2022/06/25 09:46:58;;;;;;;;;;;17.80;99.90;;;;;;5084011;28;19965;-62
2022/06/25 09:49:24;;;;;;;;;;;18.00;99.90;;;;;;5084981;28;20337;-63
2022/06/25 09:51:59;;;;;;;;;;;17.90;99.90;;;;;;5082499;28;19920;-63
2022/06/25 09:54:25;;;;;;;;;;;18.00;99.90;;;;;;5082156;28;19912;-62
2022/06/25 09:56:52;;;;;;;;;;;18.40;99.80;;;;;;5084446;28;19912;-63
2022/06/25 09:59:17;;;;;;;;;;;18.90;99.90;;;;;;5083215;28;20385;-61
2022/06/25 10:01:43;;;;;;;;;;;19.20;96.50;;;;;;5085994;28;19916;-62
2022/06/25 10:04:09;;;;;;;;;;;19.30;91.60;;;;;;5086894;28;19917;-63
2022/06/25 10:06:36;;;;;;;;;;;19.10;90.60;;;;;;5084927;28;20380;-62
2022/06/25 10:09:05;;;;;;;;;;;18.70;91.80;;;;;;5069208;28;20349;-63
2022/06/25 10:11:31;;;;;;;;;;;18.90;91.50;;;;;;5085315;28;19920;-62
2022/06/25 10:13:57;;;;;;;;;;;19.10;89.60;;;;;;5081633;28;19969;-62
2022/06/25 10:16:24;;;;;;;;;;;19.10;86.70;;;;;;5087086;28;20325;-62
2022/06/25 10:18:51;;;;;;;;;;;19.10;87.90;;;;;;5083107;28;19927;-63
2022/06/25 10:21:17;;;;;;;;;;;19.10;87.10;;;;;;5085245;28;19917;-62
2022/06/25 10:23:43;;;;;;;;;;;19.20;87.30;;;;;;5080747;28;19917;-63
2022/06/25 10:26:09;;;;;;;;;;;19.20;87.30;;;;;;5087213;28;19921;-63
2022/06/25 10:28:36;;;;;;;;;;;19.20;87.60;;;;;;5087935;28;20261;-63
2022/06/25 10:31:06;;;;;;;;;;;19.30;87.10;;;;;;5070635;28;19973;-62
2022/06/25 10:33:36;;;;;;;;;;;19.50;86.30;;;;;;5086621;28;19922;-63
2022/06/25 10:36:04;;;;;;;;;;;19.50;84.80;;;;;;5086642;28;19919;-62
2022/06/25 10:38:30;;;;;;;;;;;19.00;85.50;;;;;;5090521;28;20262;-62
2022/06/25 10:42:58;;;;;;;;;;;18.90;87.20;;;;;;5085572;28;19924;-62
2022/06/25 10:43:46;;;;;;;;;;;18.90;87.90;;;;;;5083356;28;20026;-63
2022/06/25 10:46:19;;;;;;;;;;;18.80;88.20;;;;;;5082615;28;19912;-62
2022/06/25 10:48:51;;;;;;;;;;;18.80;88.30;;;;;;5084754;28;19913;-62
2022/06/25 10:51:26;;;;;;;;;;;19.00;89.10;;;;;;5083598;28;19922;-63
2022/06/25 10:53:52;;;;;;;;;;;19.10;88.00;;;;;;5075311;28;19927;-62
2022/06/25 10:56:18;;;;;;;;;;;19.20;87.00;;;;;;5093704;28;20342;-64
2022/06/25 10:58:44;;;;;;;;;;;19.40;85.60;;;;;;5070968;28;19916;-64
2022/06/25 11:01:20;;;;;;;;;;;19.60;85.00;;;;;;5075439;28;19916;-66
2022/06/25 11:03:50;;;;;;;;;;;19.70;85.80;;;;;;5088390;28;19916;-62
2022/06/25 11:06:26;;;;;;;;;;;19.70;82.70;;;;;;5089175;28;19923;-64
2022/06/25 11:08:52;;;;;;;;;;;19.80;81.80;;;;;;5074257;28;20011;-62
2022/06/25 11:11:25;;;;;;;;;;;19.70;81.10;;;;;;5093619;28;20015;-63
2022/06/25 11:13:51;;;;;;;;;;;19.40;82.90;;;;;;5095933;28;19912;-63
2022/06/25 11:16:17;;;;;;;;;;;19.30;83.70;;;;;;5095147;28;20192;-63
2022/06/25 11:18:49;;;;;;;;;;;19.40;82.40;;;;;;5074978;28;19920;-64
2022/06/25 11:21:37;;;;;;;;;;;19.50;81.80;;;;;;5075417;28;20379;-64
2022/06/25 11:24:11;;;;;;;;;;;19.70;80.20;;;;;;5091683;28;19976;-62
2022/06/25 11:29:23;;;;;;;;;;;19.60;82.60;;;;;;5101178;28;19922;-66
2022/06/25 11:31:49;;;;;;;;;;;19.90;83.00;;;;;;5085334;28;19923;-69
2022/06/25 11:34:16;;;;;;;;;;;20.10;82.00;;;;;;5095705;28;19912;-66
2022/06/25 11:36:41;;;;;;;;;;;19.90;80.00;;;;;;5103153;28;19916;-70
2022/06/25 11:39:07;;;;;;;;;;;20.00;81.00;;;;;;5092831;28;19987;-66
2022/06/25 11:41:33;;;;;;;;;;;19.80;81.90;;;;;;5101271;28;19919;-66
2022/06/25 11:44:05;;;;;;;;;;;19.70;82.80;;;;;;5105368;28;19975;-64
2022/06/25 11:46:34;;;;;;;;;;;19.80;81.60;;;;;;5080709;28;19916;-65
2022/06/25 11:49:04;;;;;;;;;;;19.90;82.30;;;;;;5100487;28;19966;-66
2022/06/25 11:51:31;;;;;;;;;;;20.00;79.90;;;;;;5106339;28;19924;-62
2022/06/25 11:53:57;;;;;;;;;;;19.80;80.30;;;;;;5069062;28;19919;-61
2022/06/25 11:56:23;;;;;;;;;;;19.70;82.40;;;;;;5090405;28;20310;-59
2022/06/25 11:58:48;;;;;;;;;;;19.70;82.40;;;;;;5084818;28;19907;-59
2022/06/25 12:01:14;;;;;;;;;;;19.60;83.10;;;;;;5085968;28;19924;-64
2022/06/25 12:03:40;;;;;;;;;;;19.60;83.30;;;;;;5088977;28;19920;-61
2022/06/25 12:06:06;;;;;;;;;;;19.50;83.80;;;;;;5065856;28;19916;-59
2022/06/25 12:08:35;;;;;;;;;;;19.80;83.50;;;;;;5085716;28;19920;-60
2022/06/25 12:11:01;;;;;;;;;;;19.90;81.70;;;;;;5087430;28;19915;-61
2022/06/25 12:13:31;;;;;;;;;;;19.80;81.90;;;;;;5081099;28;19912;-60
2022/06/25 12:15:57;;;;;;;;;;;19.80;82.70;;;;;;5062722;28;19923;-62
2022/06/25 12:18:43;;;;;;;;;;;20.00;82.80;;;;;;5081695;28;19928;-60
2022/06/25 12:21:16;;;;;;;;;;;20.00;81.10;;;;;;5070976;28;19959;-61
2022/06/25 12:23:51;;;;;;;;;;;20.00;81.10;;;;;;5090336;28;19912;-58
2022/06/25 12:26:29;;;;;;;;;;;19.90;80.80;;;;;;5079232;28;19916;-59
2022/06/25 12:29:25;;;;;;;;;;;20.00;80.10;;;;;;5077329;28;20396;-60
2022/06/25 12:31:59;;;;;;;;;;;20.20;79.90;;;;;;5059558;28;20136;-60
2022/06/25 12:34:26;;;;;;;;;;;20.10;79.50;;;;;;5085021;28;19924;-60
2022/06/25 12:36:52;;;;;;;;;;;19.90;82.20;;;;;;5083855;28;20265;-60
2022/06/25 12:39:37;;;;;;;;;;;20.00;81.80;;;;;;5083512;28;20305;-58
2022/06/25 12:42:03;;;;;;;;;;;20.00;82.50;;;;;;5065894;28;19966;-60
2022/06/25 12:44:33;;;;;;;;;;;20.00;81.10;;;;;;5083809;28;19916;-59
2022/06/25 12:47:06;;;;;;;;;;;19.90;80.40;;;;;;5086534;28;20011;-59
2022/06/25 12:49:41;;;;;;;;;;;20.10;80.70;;;;;;5082353;28;20296;-60
2022/06/25 12:52:07;;;;;;;;;;;20.50;80.10;;;;;;5074260;28;19920;-60
2022/06/25 12:54:44;;;;;;;;;;;20.40;80.20;;;;;;5066238;28;19942;-59
2022/06/25 12:57:16;;;;;;;;;;;20.60;80.30;;;;;;5084446;28;19919;-60
2022/06/25 12:59:43;;;;;;;;;;;20.60;78.70;;;;;;5080096;28;19958;-59
2022/06/25 13:02:08;;;;;;;;;;;20.40;79.20;;;;;;5084606;28;19920;-59
2022/06/25 13:04:34;;;;;;;;;;;20.50;79.50;;;;;;5086866;28;19919;-61
2022/06/25 13:06:59;;;;;;;;;;;20.30;78.70;;;;;;5086515;28;20002;-59
2022/06/25 13:09:25;;;;;;;;;;;20.20;80.30;;;;;;5086976;28;19943;-61
2022/06/25 13:11:50;;;;;;;;;;;20.40;80.20;;;;;;5086434;28;19931;-59
2022/06/25 13:14:16;;;;;;;;;;;20.60;78.90;;;;;;5086455;28;19962;-59
2022/06/25 13:16:42;;;;;;;;;;;20.80;78.00;;;;;;5088171;28;20335;-58
2022/06/25 13:19:08;;;;;;;;;;;20.70;77.10;;;;;;5083627;28;19920;-60
2022/06/25 13:21:36;;;;;;;;;;;20.50;78.90;;;;;;5080323;28;19939;-61
2022/06/25 13:24:02;;;;;;;;;;;20.30;79.70;;;;;;5061712;28;19912;-58
2022/06/25 13:26:28;;;;;;;;;;;20.30;78.30;;;;;;5081500;28;19935;-60
2022/06/25 13:28:53;;;;;;;;;;;20.30;79.50;;;;;;5062952;28;19916;-64
2022/06/25 13:31:19;;;;;;;;;;;20.20;78.70;;;;;;5078279;28;19959;-59
2022/06/25 13:33:44;;;;;;;;;;;20.30;79.70;;;;;;5081609;28;19916;-56
2022/06/25 13:36:10;;;;;;;;;;;20.60;79.00;;;;;;5080571;28;19927;-59
2022/06/25 13:38:36;;;;;;;;;;;20.50;79.20;;;;;;5074126;28;19920;-58
2022/06/25 13:41:01;;;;;;;;;;;20.40;79.60;;;;;;5076609;28;19924;-59
2022/06/25 13:43:27;;;;;;;;;;;20.30;78.90;;;;;;5065092;28;19912;-58
2022/06/25 13:45:52;;;;;;;;;;;20.30;79.80;;;;;;5075314;28;19920;-61
2022/06/25 13:48:18;;;;;;;;;;;20.50;80.30;;;;;;5057591;28;19916;-61
2022/06/25 13:50:44;;;;;;;;;;;20.60;78.00;;;;;;5076972;28;19924;-60
2022/06/25 13:53:10;;;;;;;;;;;20.70;76.70;;;;;;5077669;28;20631;-58
2022/06/25 13:55:36;;;;;;;;;;;20.80;77.90;;;;;;5076935;28;19939;-59
2022/06/25 13:58:02;;;;;;;;;;;20.70;77.10;;;;;;5077426;28;19916;-59
2022/06/25 14:00:28;;;;;;;;;;;20.60;77.20;;;;;;5082563;28;19920;-59
2022/06/25 14:02:53;;;;;;;;;;;20.80;75.20;;;;;;5084151;28;20149;-61
2022/06/25 14:05:19;;;;;;;;;;;20.80;76.20;;;;;;5082161;28;19928;-60
2022/06/25 14:07:45;;;;;;;;;;;20.70;77.20;;;;;;5080831;28;20370;-58
2022/06/25 14:10:12;;;;;;;;;;;20.60;77.60;;;;;;5084123;28;19916;-60
2022/06/25 14:12:38;;;;;;;;;;;20.40;77.30;;;;;;5086509;28;19912;-58
2022/06/25 14:15:04;;;;;;;;;;;20.10;78.70;;;;;;5080272;28;20166;-59
2022/06/25 14:17:30;;;;;;;;;;;20.10;80.10;;;;;;5081140;28;19920;-61
2022/06/25 14:19:56;;;;;;;;;;;20.40;78.70;;;;;;5084389;28;19955;-57
2022/06/25 14:22:22;;;;;;;;;;;20.40;78.50;;;;;;5086146;28;19912;-60
2022/06/25 14:27:31;;;;;;;;;;;20.50;79.00;;;;;;5083209;28;19938;-59